| time (UTC) | temp C | wind direction | speed KPH | gust KPH | rain 1hr cm | rain 24hr cm | rain mn cm | humidity % | barometer mb |
| 20260901010115 | 26 | 0 | 0.0 | 0.0 | 0.00 | 0.69 | 0.64 | 82 | 1011.5 |
| 20260901004618 | 26 | 0 | 0.0 | 3.2 | 0.00 | 0.71 | 0.64 | 80 | 1011.6 |
| 20260901003104 | 26 | 0 | 0.0 | 1.6 | 0.00 | 0.71 | 0.64 | 83 | 1011.6 |
| 20260901001605 | 26 | 179 | 0.0 | 3.2 | 0.00 | 0.71 | 0.64 | 83 | 1011.0 |
| 20260901000109 | 26 | 0 | 0.0 | 3.2 | 0.00 | 0.71 | 0.64 | 85 | 1011.0 |
| 20260831234608 | 26 | 0 | 0.0 | 3.2 | 0.03 | 0.74 | 0.64 | 86 | 1011.3 |
| 20260831233101 | 27 | 0 | 0.0 | 0.0 | 0.20 | 0.74 | 0.64 | 86 | 1011.9 |
| 20260831231608 | 27 | 0 | 0.0 | 0.0 | 0.20 | 0.74 | 0.64 | 84 | 1011.4 |
| 20260831230106 | 27 | 0 | 0.0 | 0.0 | 0.20 | 0.74 | 0.64 | 80 | 1011.3 |
| 20260831224604 | 29 | 0 | 0.0 | 0.0 | 0.18 | 0.74 | 0.61 | 74 | 1011.3 |
| 20260831223105 | 30 | 0 | 0.0 | 0.0 | 0.00 | 0.56 | 0.43 | 68 | 1011.6 |
| 20260831221610 | 30 | 0 | 0.0 | 1.6 | 0.00 | 0.56 | 0.43 | 66 | 1011.5 |
| 20260831220105 | 31 | 0 | 0.0 | 6.4 | 0.00 | 0.56 | 0.43 | 65 | 1010.9 |
| 20260831214600 | 31 | 0 | 0.0 | 8.0 | 0.00 | 0.56 | 0.43 | 65 | 1010.7 |
| 20260831213057 | 31 | 0 | 1.6 | 6.4 | 0.00 | 0.56 | 0.43 | 66 | 1010.8 |
| 20260831211606 | 30 | 163 | 0.0 | 3.2 | 0.00 | 0.56 | 0.43 | 65 | 1011.1 |
| 20260831204557 | 31 | 279 | 0.0 | 8.0 | 0.00 | 0.66 | 0.43 | 63 | 1011.5 |
| 20260831203107 | 31 | 266 | 0.0 | 6.4 | 0.00 | 0.66 | 0.43 | 61 | 1011.6 |
| 20260831201601 | 31 | 277 | 0.0 | 3.2 | 0.00 | 0.66 | 0.43 | 60 | 1011.1 |
| 20260831194639 | 32 | 153 | 0.0 | 6.4 | 0.00 | 0.66 | 0.43 | 57 | 1011.2 |
| 20260831193101 | 32 | 102 | 1.6 | 8.0 | 0.00 | 0.66 | 0.43 | 58 | 1011.3 |
| 20260831191607 | 31 | 0 | 0.0 | 6.4 | 0.00 | 0.66 | 0.43 | 60 | 1011.4 |
| 20260831190120 | 31 | 208 | 1.6 | 11.3 | 0.00 | 0.66 | 0.43 | 60 | 1011.6 |
| 20260831184614 | 30 | 243 | 1.6 | 11.3 | 0.00 | 0.66 | 0.43 | 61 | 1011.4 |
| 20260831183100 | 30 | 112 | 3.2 | 17.7 | 0.00 | 0.66 | 0.43 | 61 | 1011.4 |
| 20260831181602 | 30 | 217 | 0.0 | 14.5 | 0.00 | 0.66 | 0.43 | 63 | 1011.4 |
| 20260831180106 | 28 | 225 | 6.4 | 17.7 | 0.00 | 0.66 | 0.43 | 64 | 1011.6 |
| 20260831174634 | 27 | 191 | 3.2 | 12.9 | 0.00 | 0.66 | 0.43 | 66 | 1011.9 |
| 20260831173100 | 26 | 123 | 1.6 | 16.1 | 0.00 | 0.66 | 0.43 | 71 | 1012.0 |
| 20260831171559 | 24 | 210 | 1.6 | 11.3 | 0.00 | 0.66 | 0.43 | 76 | 1012.3 |
| 20260831170105 | 23 | 186 | 3.2 | 8.0 | 0.00 | 0.66 | 0.43 | 81 | 1012.7 |
| 20260831164603 | 22 | 159 | 3.2 | 8.0 | 0.00 | 0.66 | 0.43 | 82 | 1013.0 |
| 20260831163107 | 22 | 177 | 1.6 | 6.4 | 0.00 | 0.66 | 0.43 | 84 | 1012.9 |
| 20260831161608 | 21 | 132 | 1.6 | 8.0 | 0.03 | 0.66 | 0.43 | 85 | 1013.1 |
| 20260831160104 | 21 | 126 | 0.0 | 6.4 | 0.03 | 0.66 | 0.43 | 86 | 1013.2 |
| 20260831154630 | 21 | 141 | 1.6 | 6.4 | 0.03 | 0.66 | 0.43 | 87 | 1013.3 |
| 20260831153118 | 21 | 136 | 1.6 | 8.0 | 0.03 | 0.66 | 0.43 | 86 | 1013.5 |
| 20260831151611 | 21 | 119 | 0.0 | 3.2 | 0.03 | 0.64 | 0.41 | 87 | 1014.0 |
| 20260831150103 | 21 | 98 | 0.0 | 6.4 | 0.08 | 0.64 | 0.41 | 87 | 1013.7 |
| 20260831144604 | 20 | 77 | 0.0 | 6.4 | 0.13 | 0.64 | 0.41 | 87 | 1013.5 |
| 20260831143102 | 20 | 129 | 0.0 | 4.8 | 0.13 | 0.64 | 0.41 | 87 | 1013.7 |
| 20260831141605 | 20 | 139 | 0.0 | 3.2 | 0.30 | 0.61 | 0.38 | 87 | 1013.8 |
| 20260831140104 | 20 | 0 | 0.0 | 1.6 | 0.30 | 0.56 | 0.33 | 87 | 1014.2 |
| 20260831134613 | 20 | 0 | 0.0 | 3.2 | 0.25 | 0.56 | 0.28 | 86 | 1014.0 |
| 20260831133109 | 21 | 108 | 0.0 | 1.6 | 0.25 | 0.56 | 0.28 | 85 | 1014.1 |
| 20260831131603 | 21 | 0 | 0.0 | 0.0 | 0.08 | 0.36 | 0.08 | 82 | 1014.0 |
| 20260831130109 | 22 | 0 | 0.0 | 0.0 | 0.03 | 0.30 | 0.03 | 79 | 1013.9 |
| 20260831124604 | 22 | 0 | 0.0 | 1.6 | 0.03 | 0.46 | 0.03 | 78 | 1013.5 |
| 20260831123105 | 22 | 0 | 0.0 | 0.0 | 0.03 | 0.46 | 0.03 | 76 | 1013.3 |
| 20260831121630 | 23 | 0 | 0.0 | 1.6 | 0.00 | 0.43 | 0.00 | 72 | 1012.8 |
| 20260831120104 | 23 | 0 | 0.0 | 4.8 | 0.00 | 0.43 | 0.00 | 71 | 1012.2 |
| 20260831114604 | 23 | 0 | 0.0 | 4.8 | 0.00 | 0.48 | 0.00 | 69 | 1012.0 |
| 20260831113110 | 23 | 160 | 0.0 | 4.8 | 0.00 | 0.48 | 0.00 | 68 | 1012.0 |
| 20260831111604 | 23 | 156 | 0.0 | 4.8 | 0.00 | 0.48 | 0.00 | 68 | 1011.7 |
| 20260831110100 | 23 | 162 | 0.0 | 3.2 | 0.00 | 0.48 | 0.00 | 69 | 1011.5 |
| 20260831104605 | 23 | 160 | 0.0 | 9.7 | 0.00 | 0.48 | 0.00 | 69 | 1011.7 |
| 20260831103110 | 23 | 199 | 1.6 | 6.4 | 0.00 | 0.48 | 0.00 | 70 | 1011.6 |
| 20260831101605 | 23 | 0 | 0.0 | 6.4 | 0.00 | 0.48 | 0.00 | 71 | 1011.7 |
| 20260831100105 | 23 | 167 | 0.0 | 6.4 | 0.00 | 0.48 | 0.00 | 71 | 1011.5 |
| 20260831094607 | 23 | 170 | 1.6 | 6.4 | 0.00 | 0.48 | 0.00 | 72 | 1011.5 |
| 20260831093152 | 23 | 170 | 0.0 | 6.4 | 0.00 | 0.48 | 0.00 | 72 | 1011.6 |
| 20260831091601 | 23 | 150 | 1.6 | 8.0 | 0.00 | 0.48 | 0.00 | 73 | 1011.8 |
| 20260831090101 | 23 | 153 | 0.0 | 6.4 | 0.00 | 0.48 | 0.00 | 74 | 1011.8 |
| 20260831084651 | 23 | 172 | 0.0 | 3.2 | 0.00 | 0.48 | 0.00 | 74 | 1012.0 |
| 20260831083110 | 23 | 153 | 0.0 | 6.4 | 0.00 | 0.48 | 0.00 | 74 | 1011.8 |
| 20260831081602 | 23 | 157 | 0.0 | 4.8 | 0.00 | 0.48 | 0.00 | 73 | 1011.8 |
| 20260831080123 | 23 | 0 | 1.6 | 4.8 | 0.00 | 0.48 | 0.00 | 72 | 1011.8 |
| 20260831074603 | 23 | 159 | 1.6 | 6.4 | 0.00 | 0.48 | 0.00 | 72 | 1011.9 |
| 20260831073108 | 23 | 146 | 1.6 | 4.8 | 0.00 | 0.48 | 0.00 | 73 | 1011.7 |
| 20260831071611 | 23 | 143 | 0.0 | 3.2 | 0.00 | 0.48 | 0.00 | 76 | 1011.9 |
| 20260831070116 | 23 | 0 | 0.0 | 0.0 | 0.00 | 0.48 | 0.00 | 79 | 1012.0 |
| 20260831064607 | 23 | 0 | 0.0 | 0.0 | 0.00 | 0.48 | 0.00 | 80 | 1012.1 |
| 20260831063113 | 23 | 0 | 0.0 | 0.0 | 0.00 | 0.48 | 0.00 | 80 | 1012.0 |
| 20260831061600 | 23 | 0 | 0.0 | 0.0 | 0.00 | 0.48 | 0.00 | 79 | 1012.2 |
| 20260831060120 | 23 | 0 | 0.0 | 0.0 | 0.00 | 0.48 | 0.00 | 79 | 1012.1 |
| 20260831054604 | 23 | 0 | 0.0 | 0.0 | 0.00 | 0.48 | 0.00 | 79 | 1011.9 |
| 20260831053105 | 23 | 0 | 0.0 | 0.0 | 0.00 | 0.48 | 0.00 | 79 | 1012.1 |
| 20260831051559 | 23 | 0 | 0.0 | 0.0 | 0.00 | 0.48 | 0.00 | 79 | 1012.2 |
| 20260831050114 | 23 | 0 | 0.0 | 6.4 | 0.00 | 0.48 | 0.00 | 79 | 1012.0 |
| 20260831044601 | 23 | 145 | 1.6 | 9.7 | 0.00 | 0.48 | 0.48 | 81 | 1011.9 |
| 20260831043101 | 23 | 224 | 1.6 | 8.0 | 0.00 | 0.48 | 0.48 | 81 | 1011.9 |
| 20260831041606 | 23 | 157 | 1.6 | 6.4 | 0.03 | 0.48 | 0.48 | 81 | 1011.9 |
| 20260831040107 | 23 | 0 | 3.2 | 9.7 | 0.05 | 0.48 | 0.48 | 84 | 1012.0 |
| 20260831034613 | 23 | 188 | 1.6 | 8.0 | 0.05 | 0.48 | 0.48 | 85 | 1012.3 |
| 20260831033106 | 23 | 174 | 0.0 | 8.0 | 0.05 | 0.48 | 0.48 | 86 | 1012.9 |
| 20260831031605 | 23 | 0 | 0.0 | 4.8 | 0.03 | 0.46 | 0.46 | 85 | 1013.6 |
| 20260831030128 | 23 | 152 | 1.6 | 8.0 | 0.00 | 0.43 | 0.43 | 86 | 1013.4 |
| 20260831024605 | 23 | 0 | 0.0 | 0.0 | 0.00 | 0.43 | 0.43 | 86 | 1013.4 |
| 20260831023123 | 23 | 0 | 0.0 | 3.2 | 0.00 | 0.43 | 0.43 | 87 | 1013.5 |
| 20260831021606 | 23 | 171 | 0.0 | 3.2 | 0.00 | 0.43 | 0.43 | 88 | 1013.3 |
| 20260831020105 | 22 | 0 | 0.0 | 0.0 | 0.00 | 0.43 | 0.43 | 88 | 1013.4 |
| 20260831014626 | 23 | 0 | 0.0 | 0.0 | 0.00 | 0.43 | 0.43 | 88 | 1013.3 |
| 20260831013104 | 23 | 0 | 0.0 | 1.6 | 0.00 | 0.43 | 0.43 | 88 | 1013.3 |
| 20260831011609 | 23 | 0 | 0.0 | 1.6 | 0.00 | 0.43 | 0.43 | 87 | 1013.0 |